Time;durP1;ratioP1;P1;durP2;ratioP2;P2;SDS_P1;SDS_P2;PMS_P1;PMS_P2;Temp;Humidity;BMP_temperature;BMP_pressure;BME280_temperature;BME280_humidity;BME280_pressure;Samples;Min_cycle;Max_cycle;Signal;HPM_P1;HPM_P2
2023/02/23 00:01:36;;;;;;;28.87;17.73;;;11.70;99.90;;;;;;4999569;28;20655;-69
2023/02/23 00:04:05;;;;;;;34.13;19.47;;;11.70;99.90;;;;;;5000886;28;20540;-70
2023/02/23 00:06:34;;;;;;;31.67;17.60;;;11.70;99.90;;;;;;5011295;28;20489;-71
2023/02/23 00:09:10;;;;;;;24.37;15.63;;;11.60;99.90;;;;;;4997184;28;20738;-70
2023/02/23 00:11:37;;;;;;;28.90;17.07;;;11.70;99.90;;;;;;5006267;28;20524;-71
2023/02/23 00:14:04;;;;;;;29.17;16.00;;;11.70;99.90;;;;;;4999576;28;20883;-71
2023/02/23 00:16:31;;;;;;;30.60;17.03;;;11.70;99.90;;;;;;5009399;28;20473;-72
2023/02/23 00:19:01;;;;;;;26.27;16.80;;;11.70;99.90;;;;;;5012856;28;20541;-71
2023/02/23 00:21:31;;;;;;;47.53;17.87;;;11.70;99.90;;;;;;5007271;28;20489;-71
2023/02/23 00:24:00;;;;;;;25.90;17.03;;;11.80;99.90;;;;;;5002688;28;20838;-71
2023/02/23 00:26:30;;;;;;;31.47;17.33;;;11.80;99.90;;;;;;4995348;28;20588;-71
2023/02/23 00:28:59;;;;;;;27.03;16.60;;;11.80;99.90;;;;;;5001919;28;20458;-70
2023/02/23 00:31:26;;;;;;;29.10;15.47;;;11.80;99.90;;;;;;5000924;28;20494;-70
2023/02/23 00:33:54;;;;;;;24.50;15.27;;;11.80;99.90;;;;;;5003109;28;20462;-70
2023/02/23 00:36:23;;;;;;;29.10;19.83;;;11.80;99.90;;;;;;5004845;28;20466;-70
2023/02/23 00:38:54;;;;;;;30.83;18.10;;;11.90;99.90;;;;;;4997413;28;20454;-70
2023/02/23 00:41:27;;;;;;;30.00;18.97;;;11.90;99.90;;;;;;5001935;28;20889;-70
2023/02/23 00:43:54;;;;;;;37.13;19.73;;;12.00;99.90;;;;;;5002776;28;20877;-71
2023/02/23 00:46:25;;;;;;;31.83;19.70;;;12.00;99.90;;;;;;5007137;28;20482;-70
2023/02/23 00:48:54;;;;;;;30.53;16.90;;;11.90;99.90;;;;;;4998655;28;20893;-69
2023/02/23 00:51:22;;;;;;;26.43;16.97;;;12.00;99.90;;;;;;5002742;28;21107;-70
2023/02/23 00:53:49;;;;;;;27.80;17.07;;;11.90;99.90;;;;;;5004143;28;20461;-69
2023/02/23 00:56:17;;;;;;;31.87;17.17;;;11.70;99.90;;;;;;5001764;28;20482;-70
2023/02/23 00:58:46;;;;;;;26.50;17.87;;;11.70;99.90;;;;;;4998953;28;20452;-70
2023/02/23 01:01:17;;;;;;;29.07;16.67;;;11.80;99.90;;;;;;4998437;28;21518;-70
2023/02/23 01:03:44;;;;;;;39.23;18.23;;;11.90;99.90;;;;;;5004883;28;20471;-71
2023/02/23 01:06:14;;;;;;;34.60;17.80;;;11.90;99.90;;;;;;4999132;28;20879;-71
2023/02/23 01:08:42;;;;;;;43.57;19.97;;;11.80;99.90;;;;;;5005053;28;20457;-70
2023/02/23 01:11:11;;;;;;;31.13;20.93;;;11.80;99.90;;;;;;5008720;28;20540;-72
2023/02/23 01:13:41;;;;;;;27.80;17.77;;;11.70;99.90;;;;;;4994712;28;20536;-71
2023/02/23 01:16:10;;;;;;;34.20;16.30;;;11.70;99.90;;;;;;4993608;28;21058;-71
2023/02/23 01:18:39;;;;;;;28.77;17.17;;;11.80;99.90;;;;;;4993402;28;20870;-69
2023/02/23 01:21:16;;;;;;;34.63;16.30;;;11.80;99.90;;;;;;5001956;28;20555;-70
2023/02/23 01:23:43;;;;;;;30.13;20.20;;;11.80;99.90;;;;;;5001937;28;20980;-70
2023/02/23 01:26:15;;;;;;;36.90;20.80;;;11.90;99.90;;;;;;4987114;28;20489;-71
2023/02/23 01:28:44;;;;;;;36.70;17.80;;;11.80;99.90;;;;;;4998146;28;20737;-70
2023/02/23 01:31:11;;;;;;;30.10;19.20;;;11.80;99.90;;;;;;5001975;28;20577;-71
2023/02/23 01:33:38;;;;;;;25.83;15.90;;;11.80;99.90;;;;;;5004580;28;20465;-69
2023/02/23 01:36:05;;;;;;;27.67;16.90;;;11.70;99.90;;;;;;5001327;28;20511;-69
2023/02/23 01:38:32;;;;;;;31.97;17.07;;;11.70;99.90;;;;;;4982376;28;20482;-70
2023/02/23 01:40:59;;;;;;;26.93;17.87;;;11.70;99.90;;;;;;4990489;28;20761;-69
2023/02/23 01:43:27;;;;;;;30.57;17.57;;;11.80;99.90;;;;;;4997744;28;20537;-70
2023/02/23 01:45:57;;;;;;;34.00;18.17;;;11.80;99.90;;;;;;5000671;28;20577;-70
2023/02/23 01:48:28;;;;;;;33.47;19.97;;;11.60;99.90;;;;;;4996011;28;20458;-69
2023/02/23 01:50:59;;;;;;;31.20;20.27;;;11.70;99.90;;;;;;4993138;28;20469;-70
2023/02/23 01:53:29;;;;;;;36.03;22.03;;;11.70;99.90;;;;;;4992797;28;20466;-70
2023/02/23 01:55:58;;;;;;;28.83;18.17;;;11.80;99.90;;;;;;4993242;28;20531;-70
2023/02/23 01:58:28;;;;;;;31.87;17.93;;;11.70;99.90;;;;;;4996113;28;20970;-69
2023/02/23 02:01:01;;;;;;;32.67;20.40;;;11.70;99.90;;;;;;4996565;28;20470;-69
2023/02/23 02:03:33;;;;;;;33.57;19.33;;;11.80;99.90;;;;;;4995434;28;20471;-69
2023/02/23 02:06:01;;;;;;;28.30;18.20;;;11.80;99.90;;;;;;5000595;28;20496;-70
2023/02/23 02:08:32;;;;;;;32.00;18.60;;;11.70;99.90;;;;;;4984465;28;20457;-70
2023/02/23 02:10:59;;;;;;;27.17;17.80;;;11.70;99.90;;;;;;5004695;28;20467;-70
2023/02/23 02:13:32;;;;;;;30.90;17.23;;;11.70;99.90;;;;;;5002314;28;20465;-71
2023/02/23 02:16:27;;;;;;;38.20;19.50;;;11.80;99.90;;;;;;4997957;28;20815;-70
2023/02/23 02:19:30;;;;;;;35.53;18.63;;;11.70;99.90;;;;;;5001657;28;20888;-71
2023/02/23 02:22:29;;;;;;;36.00;19.20;;;11.70;99.90;;;;;;4977318;28;21269;-70
2023/02/23 02:25:22;;;;;;;33.00;17.60;;;11.70;99.90;;;;;;4997661;28;20461;-71
2023/02/23 02:28:21;;;;;;;32.20;18.27;;;11.70;99.90;;;;;;5001627;28;20938;-70
2023/02/23 02:31:23;;;;;;;30.30;18.17;;;11.70;99.90;;;;;;4996631;28;20464;-70
2023/02/23 02:34:11;;;;;;;30.97;19.87;;;11.80;99.90;;;;;;4991463;28;20457;-69
2023/02/23 02:37:09;;;;;;;33.60;18.17;;;11.70;99.90;;;;;;5005893;28;20476;-70
2023/02/23 02:39:46;;;;;;;36.07;18.57;;;11.70;99.90;;;;;;4997155;28;20453;-70
2023/02/23 02:42:20;;;;;;;32.17;18.27;;;11.70;99.90;;;;;;5000580;28;20460;-71
2023/02/23 02:44:56;;;;;;;37.07;17.90;;;11.70;99.90;;;;;;4996243;28;20494;-70
2023/02/23 02:47:29;;;;;;;37.30;20.80;;;11.70;99.90;;;;;;4997493;28;20560;-70
2023/02/23 02:50:03;;;;;;;35.10;18.93;;;11.70;99.90;;;;;;4991474;28;20525;-70
2023/02/23 02:52:39;;;;;;;30.10;15.87;;;11.80;99.90;;;;;;5001182;28;20532;-70
2023/02/23 02:55:15;;;;;;;35.17;19.83;;;11.80;99.90;;;;;;4991714;28;20463;-70
2023/02/23 02:57:45;;;;;;;40.60;19.37;;;11.80;99.90;;;;;;5002205;28;20539;-70
2023/02/23 04:18:55;;;;;;;40.27;22.67;;;11.40;99.90;;;;;;4992905;28;21448;-69
2023/02/23 04:21:22;;;;;;;34.33;19.97;;;11.30;99.90;;;;;;5001250;28;20488;-71
2023/02/23 04:23:49;;;;;;;45.53;23.33;;;11.30;99.90;;;;;;4995971;28;20579;-71
2023/02/23 04:26:16;;;;;;;45.20;21.60;;;11.30;99.90;;;;;;4998845;28;20505;-71
2023/02/23 04:28:43;;;;;;;40.30;18.70;;;11.30;99.90;;;;;;5002590;28;20464;-71
2023/02/23 04:31:10;;;;;;;47.80;25.40;;;11.30;99.90;;;;;;4996642;28;20460;-72
2023/02/23 04:33:38;;;;;;;38.00;19.67;;;11.20;99.90;;;;;;5002087;28;20485;-70
2023/02/23 04:36:05;;;;;;;47.73;26.13;;;11.30;99.90;;;;;;4998152;28;20544;-71
2023/02/23 04:38:32;;;;;;;42.97;19.80;;;11.30;99.90;;;;;;4997568;28;20466;-71
2023/02/23 04:40:59;;;;;;;46.47;23.17;;;11.20;99.90;;;;;;5000905;28;20541;-70
2023/02/23 04:43:26;;;;;;;41.40;21.83;;;11.20;99.90;;;;;;4996778;28;20447;-70
2023/02/23 04:45:53;;;;;;;47.27;23.40;;;11.20;99.90;;;;;;4997847;28;20481;-70
2023/02/23 04:48:20;;;;;;;36.40;20.33;;;11.20;99.90;;;;;;4998522;28;20548;-70
2023/02/23 04:50:52;;;;;;;40.33;22.97;;;11.30;99.90;;;;;;4993864;28;20454;-70
2023/02/23 04:53:19;;;;;;;37.30;24.30;;;11.30;99.90;;;;;;5000367;28;20568;-69
2023/02/23 04:55:46;;;;;;;38.30;18.87;;;11.10;99.90;;;;;;5000137;28;20457;-69
2023/02/23 04:58:13;;;;;;;40.10;21.83;;;11.10;99.90;;;;;;4996856;28;20880;-70
2023/02/23 05:00:41;;;;;;;35.27;20.50;;;11.00;99.90;;;;;;4999870;28;20477;-70
2023/02/23 05:03:08;;;;;;;38.97;21.37;;;11.00;99.90;;;;;;4997865;28;20888;-69
2023/02/23 05:05:35;;;;;;;36.30;19.90;;;10.90;99.90;;;;;;5000656;28;21042;-69
2023/02/23 05:08:04;;;;;;;46.53;22.90;;;11.00;99.90;;;;;;5000573;28;20494;-68
2023/02/23 05:10:31;;;;;;;40.00;21.20;;;11.00;99.90;;;;;;4997244;28;20479;-72
2023/02/23 05:12:59;;;;;;;37.70;18.83;;;11.00;99.90;;;;;;4995216;28;20465;-69
2023/02/23 05:15:27;;;;;;;42.77;19.10;;;11.10;99.90;;;;;;4999281;28;20504;-70
2023/02/23 05:17:55;;;;;;;38.47;21.13;;;11.10;99.90;;;;;;4993632;28;20486;-70
2023/02/23 05:20:22;;;;;;;38.20;20.43;;;11.10;99.90;;;;;;5002554;28;20536;-71
2023/02/23 05:22:49;;;;;;;37.03;19.50;;;11.10;99.90;;;;;;4998574;28;20531;-70
2023/02/23 05:25:17;;;;;;;45.83;23.13;;;11.10;99.90;;;;;;4997235;28;20845;-70
2023/02/23 05:27:44;;;;;;;48.97;24.77;;;11.00;99.90;;;;;;5002004;28;20489;-70
2023/02/23 05:30:12;;;;;;;41.20;22.33;;;11.00;99.90;;;;;;5008013;28;20481;-70
2023/02/23 05:32:39;;;;;;;42.67;20.20;;;11.00;99.90;;;;;;5007745;28;20457;-69
2023/02/23 05:35:07;;;;;;;37.43;22.20;;;11.00;99.90;;;;;;5007786;28;20468;-68
2023/02/23 05:37:34;;;;;;;55.77;26.70;;;11.00;99.90;;;;;;5010426;28;20475;-69
2023/02/23 05:40:01;;;;;;;46.07;23.30;;;11.10;99.90;;;;;;5001442;28;20473;-69
2023/02/23 05:42:29;;;;;;;43.90;20.60;;;11.10;99.90;;;;;;5004607;28;20464;-69
2023/02/23 05:44:59;;;;;;;40.73;20.77;;;11.00;99.90;;;;;;4994943;28;20476;-70
2023/02/23 05:47:26;;;;;;;43.33;24.40;;;11.00;99.90;;;;;;4998555;28;20488;-71
2023/02/23 05:49:53;;;;;;;44.37;22.43;;;10.90;99.90;;;;;;5000739;28;20896;-70
2023/02/23 05:52:20;;;;;;;46.60;25.67;;;10.90;99.90;;;;;;4999567;28;20468;-69
2023/02/23 05:54:47;;;;;;;48.33;27.13;;;11.00;99.90;;;;;;4994426;28;20606;-69
2023/02/23 05:57:14;;;;;;;39.87;20.70;;;10.90;99.90;;;;;;5000215;28;20474;-70
2023/02/23 05:59:45;;;;;;;40.63;21.83;;;11.00;99.90;;;;;;5006359;28;20522;-71
2023/02/23 06:02:12;;;;;;;39.67;19.40;;;10.90;99.90;;;;;;4981689;28;20731;-71
2023/02/23 06:04:39;;;;;;;42.03;22.80;;;10.90;99.90;;;;;;4999641;28;20457;-71
2023/02/23 06:07:06;;;;;;;46.47;23.93;;;10.90;99.90;;;;;;4999909;28;20496;-71
2023/02/23 06:09:34;;;;;;;43.97;21.20;;;11.00;99.90;;;;;;4995503;28;20561;-71
2023/02/23 06:12:01;;;;;;;38.87;21.83;;;10.90;99.90;;;;;;4999615;28;20522;-70
2023/02/23 06:14:28;;;;;;;39.07;20.03;;;10.90;99.90;;;;;;5001420;28;20789;-70
2023/02/23 06:16:59;;;;;;;44.53;21.47;;;10.90;99.90;;;;;;5005167;28;20548;-70
2023/02/23 06:19:26;;;;;;;40.17;22.20;;;10.90;99.90;;;;;;4996562;28;20480;-70
2023/02/23 06:21:53;;;;;;;49.07;25.57;;;10.90;99.90;;;;;;4996694;28;20462;-70
2023/02/23 06:24:20;;;;;;;47.53;23.40;;;11.00;99.90;;;;;;4998403;28;20468;-70
2023/02/23 06:26:47;;;;;;;52.60;25.17;;;11.00;99.90;;;;;;5003681;28;20493;-71
2023/02/23 06:29:14;;;;;;;46.57;23.37;;;11.00;99.90;;;;;;4999633;28;20548;-69
2023/02/23 06:31:41;;;;;;;41.30;21.70;;;10.80;99.90;;;;;;4999039;28;20465;-69
2023/02/23 06:34:10;;;;;;;42.83;21.77;;;10.80;99.90;;;;;;4993918;28;20458;-70
2023/02/23 06:36:37;;;;;;;50.17;21.87;;;10.80;99.90;;;;;;5008521;28;20627;-70
2023/02/23 06:39:04;;;;;;;50.07;23.90;;;10.80;99.90;;;;;;5004276;28;20453;-70
2023/02/23 06:41:34;;;;;;;51.27;25.10;;;10.80;99.90;;;;;;4996631;28;20996;-70
2023/02/23 06:44:01;;;;;;;61.63;26.77;;;10.90;99.90;;;;;;5002367;28;20464;-69
2023/02/23 06:46:28;;;;;;;49.63;24.17;;;10.90;99.90;;;;;;5008034;28;20678;-70
2023/02/23 06:48:55;;;;;;;44.90;21.90;;;10.90;99.90;;;;;;5001586;28;20541;-70
2023/02/23 06:51:23;;;;;;;50.13;22.43;;;10.80;99.90;;;;;;5002066;28;20441;-69
2023/02/23 06:53:51;;;;;;;43.33;23.20;;;10.90;99.90;;;;;;5009584;28;20467;-70
2023/02/23 06:56:18;;;;;;;48.17;25.47;;;10.90;99.90;;;;;;5001735;28;20470;-70
2023/02/23 06:58:45;;;;;;;61.63;24.80;;;10.70;99.90;;;;;;5005326;28;20449;-70
2023/02/23 07:01:12;;;;;;;44.67;21.90;;;10.60;99.90;;;;;;5002602;28;20462;-70
2023/02/23 07:03:39;;;;;;;91.33;23.30;;;10.60;99.90;;;;;;5003650;28;20450;-70
2023/02/23 07:06:06;;;;;;;48.27;21.93;;;10.50;99.90;;;;;;5004743;28;20477;-70
2023/02/23 07:08:35;;;;;;;48.13;23.40;;;10.50;99.90;;;;;;5003808;28;20481;-71
2023/02/23 07:11:07;;;;;;;49.10;23.87;;;10.60;99.90;;;;;;5000770;28;20558;-70
2023/02/23 07:13:34;;;;;;;51.67;25.07;;;10.50;99.90;;;;;;4999149;28;20446;-70
2023/02/23 07:16:01;;;;;;;47.43;23.20;;;10.60;99.90;;;;;;5003494;28;20580;-69
2023/02/23 07:18:28;;;;;;;50.50;25.17;;;10.70;99.90;;;;;;5000286;28;20542;-70
2023/02/23 07:20:55;;;;;;;37.73;20.50;;;10.70;99.90;;;;;;5002372;28;20917;-69
2023/02/23 07:23:22;;;;;;;41.17;22.10;;;10.60;99.90;;;;;;5004963;28;20493;-72
2023/02/23 07:25:51;;;;;;;49.17;25.10;;;10.50;99.90;;;;;;4992845;28;20473;-70
2023/02/23 07:28:20;;;;;;;37.83;21.87;;;10.60;99.90;;;;;;5000603;28;20480;-71
2023/02/23 07:30:48;;;;;;;45.10;21.40;;;10.70;99.90;;;;;;5001826;28;20437;-70
2023/02/23 07:33:15;;;;;;;41.83;19.40;;;10.70;99.90;;;;;;4997647;28;20456;-68
2023/02/23 07:35:44;;;;;;;40.47;18.13;;;10.60;99.90;;;;;;5005890;28;20897;-70
2023/02/23 07:38:11;;;;;;;40.17;19.80;;;10.60;99.90;;;;;;5000257;28;20535;-70
2023/02/23 07:40:38;;;;;;;37.97;18.20;;;10.70;99.90;;;;;;5013038;28;20503;-69
2023/02/23 07:43:06;;;;;;;35.93;17.23;;;10.80;99.90;;;;;;5011062;28;20432;-70
2023/02/23 07:45:33;;;;;;;39.50;19.83;;;10.80;99.90;;;;;;5007559;28;20473;-69
2023/02/23 07:48:00;;;;;;;45.70;23.43;;;10.80;99.90;;;;;;5012664;28;20568;-69
2023/02/23 07:50:27;;;;;;;47.37;24.87;;;10.80;99.90;;;;;;5000776;28;20925;-70
2023/02/23 07:52:54;;;;;;;47.27;19.67;;;10.70;99.90;;;;;;5002666;28;20916;-69
2023/02/23 07:55:21;;;;;;;47.73;20.93;;;10.60;99.90;;;;;;5002081;28;20553;-70
2023/02/23 07:57:48;;;;;;;48.10;24.40;;;10.50;99.90;;;;;;5002757;28;20485;-71
2023/02/23 08:00:19;;;;;;;42.47;19.93;;;10.60;99.90;;;;;;5004606;28;20524;-70
2023/02/23 08:02:46;;;;;;;50.47;20.00;;;10.50;99.90;;;;;;5003244;28;20480;-71
2023/02/23 08:05:13;;;;;;;40.07;20.23;;;10.50;99.90;;;;;;5003431;28;20649;-71
2023/02/23 08:07:39;;;;;;;48.03;26.13;;;10.50;99.90;;;;;;5008640;28;20481;-72
2023/02/23 08:10:07;;;;;;;51.40;23.73;;;10.60;99.90;;;;;;5004658;28;20436;-71
2023/02/23 08:12:34;;;;;;;64.23;22.97;;;10.50;99.90;;;;;;5026038;28;21019;-70
2023/02/23 08:15:01;;;;;;;35.33;19.50;;;10.50;99.90;;;;;;5015153;28;20564;-70
2023/02/23 08:17:30;;;;;;;41.27;21.07;;;10.50;99.90;;;;;;5004735;28;20474;-70
2023/02/23 08:19:56;;;;;;;48.97;25.23;;;10.60;99.90;;;;;;5007783;28;20553;-70
2023/02/23 08:22:23;;;;;;;52.23;22.90;;;10.60;99.90;;;;;;5011066;28;20444;-71
2023/02/23 08:24:50;;;;;;;45.57;23.87;;;10.70;99.90;;;;;;5011096;28;20543;-71
2023/02/23 08:27:17;;;;;;;54.17;22.57;;;10.60;99.90;;;;;;4998198;28;20577;-70
2023/02/23 08:29:44;;;;;;;68.23;24.57;;;10.60;99.90;;;;;;5001775;28;20431;-70
2023/02/23 08:32:11;;;;;;;52.03;21.60;;;10.60;99.90;;;;;;5001488;28;20497;-71
2023/02/23 08:34:42;;;;;;;64.10;24.20;;;10.50;99.90;;;;;;5009181;28;20457;-71
2023/02/23 08:37:09;;;;;;;58.63;24.90;;;10.70;99.90;;;;;;5006187;28;20469;-71
2023/02/23 08:39:37;;;;;;;47.23;22.17;;;10.70;99.90;;;;;;5008124;28;20458;-71
2023/02/23 08:42:04;;;;;;;51.37;23.60;;;10.60;99.90;;;;;;5007674;28;20547;-71
2023/02/23 08:44:31;;;;;;;52.90;21.77;;;10.50;99.90;;;;;;5003419;28;20828;-71
2023/02/23 08:46:58;;;;;;;51.07;20.73;;;10.40;99.90;;;;;;5009396;28;20546;-70
2023/02/23 08:49:25;;;;;;;51.67;21.53;;;10.40;99.90;;;;;;5011827;28;20494;-70
2023/02/23 08:51:53;;;;;;;46.20;20.47;;;10.30;99.90;;;;;;5002657;28;20462;-70
2023/02/23 08:54:20;;;;;;;42.23;23.17;;;10.30;99.90;;;;;;5000091;28;20496;-71
2023/02/23 08:56:47;;;;;;;32.33;18.63;;;10.40;99.90;;;;;;5000020;28;20474;-70
2023/02/23 08:59:14;;;;;;;56.17;25.70;;;10.50;99.90;;;;;;5009392;28;21018;-71
2023/02/23 09:01:42;;;;;;;44.10;23.00;;;10.50;99.90;;;;;;5000366;28;20427;-70
2023/02/23 09:04:09;;;;;;;49.23;26.63;;;10.50;99.90;;;;;;5002004;28;20449;-70
2023/02/23 09:06:37;;;;;;;45.60;21.70;;;10.60;99.90;;;;;;5006042;28;20489;-70
2023/02/23 09:09:05;;;;;;;63.73;23.30;;;10.60;99.90;;;;;;5009727;28;20822;-70
2023/02/23 09:11:32;;;;;;;44.50;20.20;;;10.70;99.90;;;;;;5002035;28;20537;-71
2023/02/23 09:13:59;;;;;;;45.37;19.77;;;10.80;99.90;;;;;;5004717;28;21063;-70
2023/02/23 09:16:26;;;;;;;47.50;18.47;;;10.80;99.90;;;;;;5001453;28;20556;-71
2023/02/23 09:18:54;;;;;;;40.70;19.43;;;10.70;99.90;;;;;;5008123;28;20464;-70
2023/02/23 09:21:24;;;;;;;54.20;22.40;;;10.60;99.90;;;;;;5002031;28;20432;-71
2023/02/23 09:23:53;;;;;;;45.00;21.33;;;10.50;99.90;;;;;;5004392;28;20766;-70
2023/02/23 09:26:22;;;;;;;42.53;19.13;;;10.40;99.90;;;;;;5005171;28;20484;-71
2023/02/23 09:28:50;;;;;;;40.90;18.07;;;10.20;99.90;;;;;;5002840;28;20481;-68
2023/02/23 09:31:19;;;;;;;40.70;20.47;;;10.30;99.90;;;;;;5006197;28;21187;-70
2023/02/23 09:33:46;;;;;;;34.73;17.67;;;10.40;99.90;;;;;;5005367;28;20462;-70
2023/02/23 09:36:16;;;;;;;41.67;18.80;;;10.50;99.90;;;;;;5000749;28;20497;-70
2023/02/23 09:38:43;;;;;;;49.90;22.63;;;10.50;99.90;;;;;;5004997;28;20855;-70
2023/02/23 09:41:46;;;;;;;42.83;20.97;;;10.40;99.90;;;;;;5005993;28;20564;-71
2023/02/23 09:44:20;;;;;;;47.07;20.67;;;10.50;99.90;;;;;;5002809;28;20662;-71
2023/02/23 09:46:54;;;;;;;43.13;18.37;;;10.50;99.90;;;;;;5008720;28;20495;-69
2023/02/23 09:49:25;;;;;;;36.10;19.07;;;10.60;99.90;;;;;;5009573;28;20527;-70
2023/02/23 09:51:56;;;;;;;37.30;17.37;;;10.60;99.90;;;;;;5013752;28;20476;-70
2023/02/23 09:54:26;;;;;;;41.23;20.87;;;10.60;99.90;;;;;;5007438;28;20695;-69
2023/02/23 09:56:57;;;;;;;43.30;19.53;;;10.60;99.90;;;;;;5003510;28;20533;-71
2023/02/23 09:59:28;;;;;;;45.67;17.77;;;10.60;99.90;;;;;;5000946;28;20461;-70
2023/02/23 10:02:06;;;;;;;36.70;13.97;;;10.60;99.90;;;;;;5002209;28;20488;-70
2023/02/23 10:04:41;;;;;;;42.33;18.73;;;10.70;99.90;;;;;;5003539;28;20457;-70
2023/02/23 10:07:16;;;;;;;44.80;20.00;;;10.70;99.90;;;;;;5001681;28;20488;-70
2023/02/23 10:09:59;;;;;;;37.20;18.77;;;10.50;99.90;;;;;;4999939;28;20453;-70
2023/02/23 10:12:33;;;;;;;34.00;14.83;;;10.30;99.90;;;;;;4996665;28;20537;-69
2023/02/23 10:15:12;;;;;;;26.60;16.17;;;10.20;99.90;;;;;;4994460;28;20459;-69
2023/02/23 10:17:44;;;;;;;30.47;15.13;;;10.40;99.90;;;;;;5001261;28;21013;-71
2023/02/23 10:20:22;;;;;;;32.97;17.30;;;10.40;99.90;;;;;;5001259;28;21012;-71
2023/02/23 10:22:51;;;;;;;35.63;15.90;;;10.50;99.90;;;;;;5005286;28;20919;-70
2023/02/23 10:25:21;;;;;;;38.30;18.77;;;10.40;99.90;;;;;;5005322;28;20585;-70
2023/02/23 10:27:50;;;;;;;29.17;14.17;;;10.50;99.90;;;;;;5009513;28;20489;-71
2023/02/23 10:30:21;;;;;;;31.23;14.00;;;10.50;99.90;;;;;;4999260;28;20436;-71
2023/02/23 10:32:57;;;;;;;25.53;13.57;;;10.60;99.90;;;;;;4995504;28;20444;-70
2023/02/23 10:35:28;;;;;;;25.90;8.67;;;10.70;99.90;;;;;;5003876;28;20483;-70
2023/02/23 10:37:55;;;;;;;30.63;13.43;;;10.60;99.90;;;;;;5000764;28;20592;-71
2023/02/23 10:40:24;;;;;;;28.53;11.93;;;10.50;99.90;;;;;;4997085;28;21065;-70
2023/02/23 10:42:54;;;;;;;26.40;12.13;;;10.40;99.90;;;;;;4996736;28;20461;-72
2023/02/23 10:45:23;;;;;;;22.27;12.80;;;10.60;99.90;;;;;;5004950;28;20519;-71
2023/02/23 10:47:57;;;;;;;35.13;12.83;;;10.70;99.90;;;;;;5013453;28;20486;-69
2023/02/23 10:50:26;;;;;;;31.30;13.27;;;10.50;99.90;;;;;;5009950;28;20533;-71
2023/02/23 10:52:57;;;;;;;20.43;10.27;;;10.50;99.90;;;;;;5004989;28;20428;-71
2023/02/23 10:55:28;;;;;;;27.10;10.63;;;10.40;99.90;;;;;;4999379;28;20604;-71
2023/02/23 10:58:15;;;;;;;40.13;15.07;;;10.40;99.90;;;;;;4998039;28;20557;-70
2023/02/23 11:00:51;;;;;;;20.77;10.33;;;10.30;99.90;;;;;;5011371;28;20536;-71
2023/02/23 11:03:27;;;;;;;27.73;10.97;;;10.20;99.90;;;;;;5006839;28;20441;-71
2023/02/23 11:05:54;;;;;;;25.63;10.53;;;10.30;99.90;;;;;;4999130;28;20650;-70
2023/02/23 11:08:25;;;;;;;16.50;9.70;;;10.20;99.90;;;;;;4996716;28;20573;-72
2023/02/23 11:10:57;;;;;;;32.17;12.60;;;10.10;99.90;;;;;;5000977;28;20549;-70
2023/02/23 11:13:27;;;;;;;26.83;15.00;;;10.10;99.90;;;;;;5002184;28;20508;-71
2023/02/23 11:16:00;;;;;;;37.60;16.73;;;10.10;99.90;;;;;;5001433;28;20565;-69
2023/02/23 11:18:28;;;;;;;26.53;12.80;;;10.00;99.90;;;;;;5005261;28;20541;-71
2023/02/23 11:20:56;;;;;;;41.80;12.50;;;9.90;99.90;;;;;;5003633;28;20453;-70
2023/02/23 11:23:28;;;;;;;28.27;13.73;;;10.00;99.90;;;;;;5007789;28;27089;-71
2023/02/23 11:25:58;;;;;;;25.73;9.77;;;10.10;99.90;;;;;;5007016;28;20461;-71
2023/02/23 11:28:30;;;;;;;21.23;10.10;;;10.00;99.90;;;;;;5004859;28;20567;-71
2023/02/23 11:31:02;;;;;;;18.10;7.97;;;10.00;99.90;;;;;;4985563;28;20504;-71
2023/02/23 11:33:34;;;;;;;23.77;10.43;;;9.90;99.90;;;;;;5005777;28;20497;-71
2023/02/23 11:36:14;;;;;;;31.27;15.47;;;9.90;99.90;;;;;;5008040;28;20551;-71
2023/02/23 11:38:42;;;;;;;24.03;12.47;;;10.00;99.90;;;;;;5006019;28;20455;-70
2023/02/23 11:41:19;;;;;;;31.37;12.50;;;10.20;99.90;;;;;;5007282;28;20556;-70
2023/02/23 11:43:50;;;;;;;39.67;15.80;;;10.10;99.90;;;;;;5003445;28;20847;-70
2023/02/23 11:46:20;;;;;;;21.57;11.17;;;10.30;99.90;;;;;;5003742;28;20496;-71
2023/02/23 11:48:54;;;;;;;21.63;10.93;;;10.20;99.90;;;;;;5003301;28;20473;-71
2023/02/23 11:51:31;;;;;;;23.63;13.00;;;10.10;99.90;;;;;;5002498;28;20485;-70
2023/02/23 11:53:58;;;;;;;17.47;8.80;;;10.10;99.90;;;;;;5007326;28;20552;-70
2023/02/23 11:56:27;;;;;;;28.57;10.37;;;10.20;99.90;;;;;;5009960;28;20527;-71
2023/02/23 11:58:59;;;;;;;24.30;10.90;;;10.10;99.90;;;;;;5007750;28;20457;-71
2023/02/23 12:01:40;;;;;;;25.27;10.77;;;10.00;99.90;;;;;;4999641;28;20449;-70
2023/02/23 12:04:09;;;;;;;19.83;9.53;;;10.00;99.90;;;;;;5010924;28;20467;-72
2023/02/23 12:06:38;;;;;;;28.30;10.53;;;10.00;99.90;;;;;;5006253;28;20481;-71
2023/02/23 12:09:17;;;;;;;25.33;9.97;;;10.10;99.90;;;;;;5006446;28;20569;-71
2023/02/23 12:11:49;;;;;;;27.37;12.67;;;10.10;99.90;;;;;;5006554;28;20449;-72
2023/02/23 12:14:29;;;;;;;31.27;15.47;;;10.10;99.90;;;;;;5001359;28;20444;-72
2023/02/23 12:17:02;;;;;;;29.30;10.87;;;10.20;99.90;;;;;;4998807;28;20444;-71
2023/02/23 12:19:34;;;;;;;17.37;8.80;;;10.30;99.90;;;;;;5004499;28;20469;-71
2023/02/23 12:22:11;;;;;;;22.50;10.20;;;10.10;99.90;;;;;;5006619;28;20872;-71
2023/02/23 12:24:45;;;;;;;28.77;11.33;;;10.10;99.90;;;;;;5002975;28;20442;-70
2023/02/23 12:27:16;;;;;;;19.50;9.70;;;10.00;99.90;;;;;;4999173;28;20549;-71
2023/02/23 12:30:04;;;;;;;17.80;8.60;;;10.20;99.90;;;;;;5005212;28;20498;-71
2023/02/23 12:32:44;;;;;;;22.17;7.80;;;10.10;99.90;;;;;;5001788;28;20876;-71
2023/02/23 12:35:16;;;;;;;33.27;10.70;;;10.20;99.90;;;;;;4967987;28;20427;-71
2023/02/23 12:37:47;;;;;;;23.33;9.20;;;10.20;99.90;;;;;;5007567;28;20460;-70
2023/02/23 12:40:17;;;;;;;20.40;9.53;;;10.20;99.90;;;;;;5008964;28;20475;-71
2023/02/23 12:42:56;;;;;;;24.47;13.03;;;10.20;99.90;;;;;;5013481;28;20468;-70
2023/02/23 12:45:28;;;;;;;18.90;7.90;;;10.20;99.90;;;;;;5005060;28;21001;-71
2023/02/23 12:48:04;;;;;;;16.03;7.07;;;10.40;99.90;;;;;;5010727;28;20547;-71
2023/02/23 12:50:34;;;;;;;18.83;10.00;;;10.30;99.90;;;;;;5003065;28;20526;-70
2023/02/23 12:53:11;;;;;;;26.43;9.00;;;10.10;99.90;;;;;;5008205;28;20514;-72
2023/02/23 12:55:47;;;;;;;18.97;8.80;;;10.00;99.90;;;;;;5001800;28;20428;-72
2023/02/23 12:58:24;;;;;;;16.20;8.47;;;9.90;99.90;;;;;;5004592;28;20408;-71
2023/02/23 13:01:01;;;;;;;18.27;6.53;;;10.00;99.90;;;;;;5007146;28;20503;-72
2023/02/23 13:03:48;;;;;;;19.77;11.17;;;10.10;99.90;;;;;;5008424;28;20460;-71
2023/02/23 13:06:29;;;;;;;26.90;10.10;;;10.00;99.90;;;;;;5005054;28;20511;-71
2023/02/23 13:09:08;;;;;;;20.40;9.83;;;10.10;99.90;;;;;;5006720;28;20476;-71
2023/02/23 13:11:52;;;;;;;24.40;11.90;;;10.10;99.90;;;;;;5005375;28;20440;-71
2023/02/23 13:14:25;;;;;;;12.83;7.23;;;10.20;99.90;;;;;;5000001;28;20536;-72
2023/02/23 13:16:56;;;;;;;21.43;10.63;;;10.20;99.90;;;;;;5000984;28;20462;-71
2023/02/23 13:19:29;;;;;;;27.23;9.33;;;10.20;99.90;;;;;;5001302;28;20556;-72
2023/02/23 13:22:06;;;;;;;17.30;9.37;;;10.20;99.90;;;;;;5008843;28;20878;-72
2023/02/23 13:24:37;;;;;;;23.23;8.40;;;10.20;99.90;;;;;;5015156;28;20482;-72
2023/02/23 13:27:14;;;;;;;20.37;8.70;;;10.30;99.90;;;;;;5003469;28;20488;-71
2023/02/23 13:29:44;;;;;;;13.30;7.53;;;10.30;99.90;;;;;;5003542;28;20474;-71
2023/02/23 13:32:16;;;;;;;17.97;8.50;;;10.30;99.90;;;;;;5008024;28;20461;-72
2023/02/23 13:34:46;;;;;;;14.87;7.70;;;10.30;99.90;;;;;;5002726;28;20461;-72
2023/02/23 13:37:19;;;;;;;19.60;10.27;;;10.20;99.90;;;;;;4987246;28;21008;-72
2023/02/23 13:40:07;;;;;;;20.73;8.33;;;10.20;99.90;;;;;;5003884;28;20436;-72
2023/02/23 13:42:44;;;;;;;11.87;5.97;;;10.30;99.90;;;;;;5010635;28;20988;-71
2023/02/23 13:45:36;;;;;;;13.63;6.60;;;10.20;99.90;;;;;;5001329;28;20465;-70
2023/02/23 13:48:17;;;;;;;22.57;10.00;;;10.20;99.90;;;;;;5009334;28;20896;-71
2023/02/23 13:50:51;;;;;;;19.27;8.73;;;10.20;99.90;;;;;;5000945;28;20979;-70
2023/02/23 13:53:43;;;;;;;12.17;5.73;;;10.10;99.90;;;;;;5000286;28;20473;-72
2023/02/23 13:56:14;;;;;;;23.87;11.70;;;9.90;99.90;;;;;;4983686;28;20519;-72
2023/02/23 13:58:47;;;;;;;18.87;7.33;;;9.90;99.90;;;;;;5000954;28;20524;-72
2023/02/23 14:01:17;;;;;;;20.30;8.20;;;9.80;99.90;;;;;;4998384;28;20455;-71
2023/02/23 14:03:53;;;;;;;21.60;9.17;;;9.80;99.90;;;;;;5006000;28;20573;-72
2023/02/23 14:06:23;;;;;;;22.43;9.03;;;9.60;99.90;;;;;;5002481;28;20472;-71